sensor_id;sensor_type;location;lat;lon;timestamp;P1;durP1;ratioP1;P2;durP2;ratioP2
30647;SDS011;17683;53.360;9.736;2024-02-26T00:00:33;5.15;;;4.28;;
30647;SDS011;17683;53.360;9.736;2024-02-26T00:03:00;9.32;;;5.07;;
30647;SDS011;17683;53.360;9.736;2024-02-26T00:05:26;5.30;;;4.35;;
30647;SDS011;17683;53.360;9.736;2024-02-26T00:07:52;5.25;;;4.22;;
30647;SDS011;17683;53.360;9.736;2024-02-26T00:10:18;4.63;;;4.13;;
30647;SDS011;17683;53.360;9.736;2024-02-26T00:12:44;6.07;;;4.15;;
30647;SDS011;17683;53.360;9.736;2024-02-26T00:15:10;5.13;;;4.57;;
30647;SDS011;17683;53.360;9.736;2024-02-26T00:17:36;5.00;;;4.07;;
30647;SDS011;17683;53.360;9.736;2024-02-26T00:20:02;4.80;;;4.30;;
30647;SDS011;17683;53.360;9.736;2024-02-26T00:22:33;4.78;;;4.20;;
30647;SDS011;17683;53.360;9.736;2024-02-26T00:24:59;4.50;;;4.00;;
30647;SDS011;17683;53.360;9.736;2024-02-26T00:27:25;5.32;;;3.92;;
30647;SDS011;17683;53.360;9.736;2024-02-26T00:29:50;5.30;;;4.15;;
30647;SDS011;17683;53.360;9.736;2024-02-26T00:32:16;4.68;;;4.00;;
30647;SDS011;17683;53.360;9.736;2024-02-26T00:34:42;4.93;;;3.95;;
30647;SDS011;17683;53.360;9.736;2024-02-26T00:37:08;4.10;;;3.67;;
30647;SDS011;17683;53.360;9.736;2024-02-26T00:39:34;4.70;;;4.03;;
30647;SDS011;17683;53.360;9.736;2024-02-26T00:41:59;5.35;;;4.55;;
30647;SDS011;17683;53.360;9.736;2024-02-26T00:44:25;4.65;;;4.07;;
30647;SDS011;17683;53.360;9.736;2024-02-26T00:46:51;5.25;;;4.68;;
30647;SDS011;17683;53.360;9.736;2024-02-26T00:49:16;4.53;;;3.88;;
30647;SDS011;17683;53.360;9.736;2024-02-26T00:51:42;4.90;;;3.30;;
30647;SDS011;17683;53.360;9.736;2024-02-26T00:54:08;3.40;;;3.10;;
30647;SDS011;17683;53.360;9.736;2024-02-26T00:56:34;4.43;;;3.60;;
30647;SDS011;17683;53.360;9.736;2024-02-26T00:58:59;3.72;;;3.30;;
30647;SDS011;17683;53.360;9.736;2024-02-26T01:01:25;4.15;;;3.47;;
30647;SDS011;17683;53.360;9.736;2024-02-26T01:03:52;4.22;;;3.40;;
30647;SDS011;17683;53.360;9.736;2024-02-26T01:06:18;3.35;;;3.05;;
30647;SDS011;17683;53.360;9.736;2024-02-26T01:08:44;4.88;;;3.60;;
30647;SDS011;17683;53.360;9.736;2024-02-26T01:11:09;4.90;;;3.83;;
30647;SDS011;17683;53.360;9.736;2024-02-26T01:13:35;3.70;;;3.35;;
30647;SDS011;17683;53.360;9.736;2024-02-26T01:16:01;4.25;;;3.22;;
30647;SDS011;17683;53.360;9.736;2024-02-26T01:18:27;5.10;;;4.03;;
30647;SDS011;17683;53.360;9.736;2024-02-26T01:20:53;4.53;;;3.63;;
30647;SDS011;17683;53.360;9.736;2024-02-26T01:23:19;4.25;;;3.83;;
30647;SDS011;17683;53.360;9.736;2024-02-26T01:25:45;3.90;;;3.50;;
30647;SDS011;17683;53.360;9.736;2024-02-26T01:28:11;4.18;;;3.55;;
30647;SDS011;17683;53.360;9.736;2024-02-26T01:30:39;5.50;;;3.72;;
30647;SDS011;17683;53.360;9.736;2024-02-26T01:33:05;3.75;;;3.45;;
30647;SDS011;17683;53.360;9.736;2024-02-26T01:35:30;4.28;;;3.53;;
30647;SDS011;17683;53.360;9.736;2024-02-26T01:37:56;3.90;;;3.47;;
30647;SDS011;17683;53.360;9.736;2024-02-26T01:40:26;3.75;;;3.45;;
30647;SDS011;17683;53.360;9.736;2024-02-26T01:42:52;5.25;;;3.65;;
30647;SDS011;17683;53.360;9.736;2024-02-26T01:45:18;3.95;;;3.35;;
30647;SDS011;17683;53.360;9.736;2024-02-26T01:47:50;4.85;;;3.90;;
30647;SDS011;17683;53.360;9.736;2024-02-26T01:50:17;6.80;;;4.20;;
30647;SDS011;17683;53.360;9.736;2024-02-26T01:52:44;8.32;;;4.93;;
30647;SDS011;17683;53.360;9.736;2024-02-26T01:55:14;5.15;;;4.30;;
30647;SDS011;17683;53.360;9.736;2024-02-26T01:57:42;4.80;;;4.20;;
30647;SDS011;17683;53.360;9.736;2024-02-26T02:00:09;4.97;;;3.80;;
30647;SDS011;17683;53.360;9.736;2024-02-26T02:02:36;5.53;;;4.20;;
30647;SDS011;17683;53.360;9.736;2024-02-26T02:05:04;5.93;;;4.57;;
30647;SDS011;17683;53.360;9.736;2024-02-26T02:07:31;5.95;;;4.25;;
30647;SDS011;17683;53.360;9.736;2024-02-26T02:09:57;5.25;;;4.68;;
30647;SDS011;17683;53.360;9.736;2024-02-26T02:12:24;7.50;;;4.20;;
30647;SDS011;17683;53.360;9.736;2024-02-26T02:14:50;5.50;;;4.40;;
30647;SDS011;17683;53.360;9.736;2024-02-26T02:17:15;5.90;;;4.40;;
30647;SDS011;17683;53.360;9.736;2024-02-26T02:19:41;4.60;;;3.70;;
30647;SDS011;17683;53.360;9.736;2024-02-26T02:22:07;5.07;;;4.32;;
30647;SDS011;17683;53.360;9.736;2024-02-26T02:24:33;5.15;;;4.25;;
30647;SDS011;17683;53.360;9.736;2024-02-26T02:26:59;6.15;;;4.70;;
30647;SDS011;17683;53.360;9.736;2024-02-26T02:29:25;4.82;;;3.85;;
30647;SDS011;17683;53.360;9.736;2024-02-26T02:31:53;5.35;;;3.83;;
30647;SDS011;17683;53.360;9.736;2024-02-26T02:34:20;5.45;;;4.50;;
30647;SDS011;17683;53.360;9.736;2024-02-26T02:36:52;5.65;;;4.60;;
30647;SDS011;17683;53.360;9.736;2024-02-26T02:39:19;6.25;;;4.95;;
30647;SDS011;17683;53.360;9.736;2024-02-26T02:41:46;7.05;;;5.00;;
30647;SDS011;17683;53.360;9.736;2024-02-26T02:44:12;5.45;;;4.85;;
30647;SDS011;17683;53.360;9.736;2024-02-26T02:46:38;6.00;;;4.43;;
30647;SDS011;17683;53.360;9.736;2024-02-26T02:49:07;6.13;;;4.70;;
30647;SDS011;17683;53.360;9.736;2024-02-26T02:51:34;5.68;;;4.65;;
30647;SDS011;17683;53.360;9.736;2024-02-26T02:54:00;7.13;;;4.45;;
30647;SDS011;17683;53.360;9.736;2024-02-26T02:56:26;5.93;;;4.70;;
30647;SDS011;17683;53.360;9.736;2024-02-26T02:58:51;5.72;;;4.82;;
30647;SDS011;17683;53.360;9.736;2024-02-26T03:01:17;6.50;;;4.20;;
30647;SDS011;17683;53.360;9.736;2024-02-26T03:03:43;10.80;;;5.00;;
30647;SDS011;17683;53.360;9.736;2024-02-26T03:06:09;5.65;;;4.70;;
30647;SDS011;17683;53.360;9.736;2024-02-26T03:08:35;6.07;;;4.68;;
30647;SDS011;17683;53.360;9.736;2024-02-26T03:11:03;5.47;;;4.40;;
30647;SDS011;17683;53.360;9.736;2024-02-26T03:13:29;6.00;;;4.40;;
30647;SDS011;17683;53.360;9.736;2024-02-26T03:15:55;6.20;;;4.90;;
30647;SDS011;17683;53.360;9.736;2024-02-26T03:18:22;6.30;;;4.65;;
30647;SDS011;17683;53.360;9.736;2024-02-26T03:20:48;5.85;;;5.00;;
30647;SDS011;17683;53.360;9.736;2024-02-26T03:23:14;7.97;;;4.72;;
30647;SDS011;17683;53.360;9.736;2024-02-26T03:25:42;6.32;;;4.55;;
30647;SDS011;17683;53.360;9.736;2024-02-26T03:28:11;7.43;;;4.50;;
30647;SDS011;17683;53.360;9.736;2024-02-26T03:30:37;5.65;;;5.03;;
30647;SDS011;17683;53.360;9.736;2024-02-26T03:33:03;5.70;;;4.18;;
30647;SDS011;17683;53.360;9.736;2024-02-26T03:35:29;7.93;;;4.60;;
30647;SDS011;17683;53.360;9.736;2024-02-26T03:37:55;6.03;;;4.57;;
30647;SDS011;17683;53.360;9.736;2024-02-26T03:40:21;5.85;;;4.25;;
30647;SDS011;17683;53.360;9.736;2024-02-26T03:42:47;8.00;;;4.50;;
30647;SDS011;17683;53.360;9.736;2024-02-26T03:45:12;4.70;;;3.80;;
30647;SDS011;17683;53.360;9.736;2024-02-26T03:47:38;4.90;;;4.30;;
30647;SDS011;17683;53.360;9.736;2024-02-26T03:50:05;6.97;;;4.70;;
30647;SDS011;17683;53.360;9.736;2024-02-26T03:52:32;6.90;;;4.90;;
30647;SDS011;17683;53.360;9.736;2024-02-26T03:54:58;5.63;;;4.18;;
30647;SDS011;17683;53.360;9.736;2024-02-26T03:57:24;5.95;;;4.22;;
30647;SDS011;17683;53.360;9.736;2024-02-26T03:59:49;5.50;;;4.25;;
30647;SDS011;17683;53.360;9.736;2024-02-26T04:02:15;4.50;;;3.67;;
30647;SDS011;17683;53.360;9.736;2024-02-26T04:04:41;6.93;;;5.07;;
30647;SDS011;17683;53.360;9.736;2024-02-26T04:07:07;5.25;;;4.43;;
30647;SDS011;17683;53.360;9.736;2024-02-26T04:09:33;5.10;;;4.25;;
30647;SDS011;17683;53.360;9.736;2024-02-26T04:11:59;7.47;;;4.22;;
30647;SDS011;17683;53.360;9.736;2024-02-26T04:14:25;5.70;;;4.55;;
30647;SDS011;17683;53.360;9.736;2024-02-26T04:16:51;6.28;;;3.85;;
30647;SDS011;17683;53.360;9.736;2024-02-26T04:19:19;5.78;;;4.25;;
30647;SDS011;17683;53.360;9.736;2024-02-26T04:21:45;5.20;;;4.00;;
30647;SDS011;17683;53.360;9.736;2024-02-26T04:24:11;6.03;;;3.75;;
30647;SDS011;17683;53.360;9.736;2024-02-26T04:26:36;5.00;;;4.03;;
30647;SDS011;17683;53.360;9.736;2024-02-26T04:29:02;4.80;;;3.70;;
30647;SDS011;17683;53.360;9.736;2024-02-26T04:31:28;5.32;;;4.05;;
30647;SDS011;17683;53.360;9.736;2024-02-26T04:33:55;5.90;;;4.03;;
30647;SDS011;17683;53.360;9.736;2024-02-26T04:36:21;6.65;;;4.05;;
30647;SDS011;17683;53.360;9.736;2024-02-26T04:38:47;8.23;;;4.68;;
30647;SDS011;17683;53.360;9.736;2024-02-26T04:41:13;6.38;;;4.22;;
30647;SDS011;17683;53.360;9.736;2024-02-26T04:43:38;6.25;;;4.43;;
30647;SDS011;17683;53.360;9.736;2024-02-26T04:46:09;6.93;;;5.03;;
30647;SDS011;17683;53.360;9.736;2024-02-26T04:48:35;6.32;;;4.45;;
30647;SDS011;17683;53.360;9.736;2024-02-26T04:51:02;5.28;;;3.95;;
30647;SDS011;17683;53.360;9.736;2024-02-26T04:53:28;4.93;;;3.90;;
30647;SDS011;17683;53.360;9.736;2024-02-26T04:55:54;5.57;;;4.28;;
30647;SDS011;17683;53.360;9.736;2024-02-26T04:58:20;7.10;;;4.43;;
30647;SDS011;17683;53.360;9.736;2024-02-26T05:00:45;4.55;;;3.67;;
30647;SDS011;17683;53.360;9.736;2024-02-26T05:03:11;7.35;;;4.88;;
30647;SDS011;17683;53.360;9.736;2024-02-26T05:05:38;5.68;;;4.38;;
30647;SDS011;17683;53.360;9.736;2024-02-26T05:08:08;5.43;;;4.03;;
30647;SDS011;17683;53.360;9.736;2024-02-26T05:10:34;8.38;;;4.18;;
30647;SDS011;17683;53.360;9.736;2024-02-26T05:13:04;6.03;;;4.05;;
30647;SDS011;17683;53.360;9.736;2024-02-26T05:15:30;6.80;;;4.30;;
30647;SDS011;17683;53.360;9.736;2024-02-26T05:17:56;9.82;;;5.28;;
30647;SDS011;17683;53.360;9.736;2024-02-26T05:20:21;6.45;;;5.00;;
30647;SDS011;17683;53.360;9.736;2024-02-26T05:22:47;6.45;;;4.50;;
30647;SDS011;17683;53.360;9.736;2024-02-26T05:25:16;6.03;;;4.40;;
30647;SDS011;17683;53.360;9.736;2024-02-26T05:27:43;9.07;;;4.50;;
30647;SDS011;17683;53.360;9.736;2024-02-26T05:30:10;5.43;;;4.40;;
30647;SDS011;17683;53.360;9.736;2024-02-26T05:32:36;6.55;;;4.50;;
30647;SDS011;17683;53.360;9.736;2024-02-26T05:35:02;9.50;;;4.07;;
30647;SDS011;17683;53.360;9.736;2024-02-26T05:37:29;4.95;;;4.10;;
30647;SDS011;17683;53.360;9.736;2024-02-26T05:39:55;5.85;;;4.07;;
30647;SDS011;17683;53.360;9.736;2024-02-26T05:42:20;7.78;;;4.07;;
30647;SDS011;17683;53.360;9.736;2024-02-26T05:44:46;6.45;;;4.53;;
30647;SDS011;17683;53.360;9.736;2024-02-26T05:47:12;6.38;;;4.38;;
30647;SDS011;17683;53.360;9.736;2024-02-26T05:49:38;5.95;;;4.25;;
30647;SDS011;17683;53.360;9.736;2024-02-26T05:52:05;6.07;;;3.92;;
30647;SDS011;17683;53.360;9.736;2024-02-26T05:54:31;6.28;;;4.85;;
30647;SDS011;17683;53.360;9.736;2024-02-26T05:56:57;5.25;;;4.00;;
30647;SDS011;17683;53.360;9.736;2024-02-26T05:59:23;5.63;;;4.15;;
30647;SDS011;17683;53.360;9.736;2024-02-26T06:01:49;5.30;;;4.25;;
30647;SDS011;17683;53.360;9.736;2024-02-26T06:04:15;7.65;;;4.80;;
30647;SDS011;17683;53.360;9.736;2024-02-26T06:06:42;8.50;;;4.78;;
30647;SDS011;17683;53.360;9.736;2024-02-26T06:09:09;6.93;;;4.75;;
30647;SDS011;17683;53.360;9.736;2024-02-26T06:11:36;7.57;;;5.38;;
30647;SDS011;17683;53.360;9.736;2024-02-26T06:14:02;6.82;;;5.38;;
30647;SDS011;17683;53.360;9.736;2024-02-26T06:16:28;12.52;;;5.18;;
30647;SDS011;17683;53.360;9.736;2024-02-26T06:18:53;8.90;;;5.45;;
30647;SDS011;17683;53.360;9.736;2024-02-26T06:21:19;7.20;;;4.82;;
30647;SDS011;17683;53.360;9.736;2024-02-26T06:23:45;8.98;;;5.70;;
30647;SDS011;17683;53.360;9.736;2024-02-26T06:26:12;7.32;;;4.93;;
30647;SDS011;17683;53.360;9.736;2024-02-26T06:28:38;8.05;;;4.78;;
30647;SDS011;17683;53.360;9.736;2024-02-26T06:31:05;6.97;;;5.15;;
30647;SDS011;17683;53.360;9.736;2024-02-26T06:33:31;8.38;;;5.80;;
30647;SDS011;17683;53.360;9.736;2024-02-26T06:35:57;9.13;;;6.72;;
30647;SDS011;17683;53.360;9.736;2024-02-26T06:38:23;13.45;;;9.35;;
30647;SDS011;17683;53.360;9.736;2024-02-26T06:40:49;15.48;;;10.27;;
30647;SDS011;17683;53.360;9.736;2024-02-26T06:43:15;12.38;;;10.00;;
30647;SDS011;17683;53.360;9.736;2024-02-26T06:45:41;11.55;;;9.05;;
30647;SDS011;17683;53.360;9.736;2024-02-26T06:48:07;13.07;;;10.07;;
30647;SDS011;17683;53.360;9.736;2024-02-26T06:50:32;14.70;;;10.00;;
30647;SDS011;17683;53.360;9.736;2024-02-26T06:52:58;21.23;;;11.38;;
30647;SDS011;17683;53.360;9.736;2024-02-26T06:55:24;14.95;;;11.05;;
30647;SDS011;17683;53.360;9.736;2024-02-26T06:57:50;18.17;;;11.55;;
30647;SDS011;17683;53.360;9.736;2024-02-26T07:00:16;13.57;;;9.90;;
30647;SDS011;17683;53.360;9.736;2024-02-26T07:02:42;12.68;;;8.52;;
30647;SDS011;17683;53.360;9.736;2024-02-26T07:05:08;10.23;;;7.00;;
30647;SDS011;17683;53.360;9.736;2024-02-26T07:07:34;14.27;;;8.38;;
30647;SDS011;17683;53.360;9.736;2024-02-26T07:10:02;11.75;;;7.90;;
30647;SDS011;17683;53.360;9.736;2024-02-26T07:12:29;12.88;;;7.53;;
30647;SDS011;17683;53.360;9.736;2024-02-26T07:14:55;12.07;;;8.60;;
30647;SDS011;17683;53.360;9.736;2024-02-26T07:17:21;14.25;;;8.73;;
30647;SDS011;17683;53.360;9.736;2024-02-26T07:19:47;13.27;;;9.07;;
30647;SDS011;17683;53.360;9.736;2024-02-26T07:22:13;14.55;;;9.73;;
30647;SDS011;17683;53.360;9.736;2024-02-26T07:24:39;12.93;;;8.57;;
30647;SDS011;17683;53.360;9.736;2024-02-26T07:27:04;13.23;;;9.40;;
30647;SDS011;17683;53.360;9.736;2024-02-26T07:29:30;12.95;;;8.98;;
30647;SDS011;17683;53.360;9.736;2024-02-26T07:31:56;12.95;;;8.27;;
30647;SDS011;17683;53.360;9.736;2024-02-26T07:34:23;10.60;;;8.07;;
30647;SDS011;17683;53.360;9.736;2024-02-26T07:36:52;13.70;;;9.18;;
30647;SDS011;17683;53.360;9.736;2024-02-26T07:39:19;12.13;;;9.13;;
30647;SDS011;17683;53.360;9.736;2024-02-26T07:41:44;11.10;;;8.55;;
30647;SDS011;17683;53.360;9.736;2024-02-26T07:44:13;14.88;;;8.27;;
30647;SDS011;17683;53.360;9.736;2024-02-26T07:46:39;12.38;;;8.38;;
30647;SDS011;17683;53.360;9.736;2024-02-26T07:49:05;13.98;;;9.60;;
30647;SDS011;17683;53.360;9.736;2024-02-26T07:51:30;12.63;;;9.20;;
30647;SDS011;17683;53.360;9.736;2024-02-26T07:53:56;13.88;;;9.35;;
30647;SDS011;17683;53.360;9.736;2024-02-26T07:56:22;15.63;;;10.95;;
30647;SDS011;17683;53.360;9.736;2024-02-26T07:58:47;13.52;;;9.55;;
30647;SDS011;17683;53.360;9.736;2024-02-26T08:01:13;17.27;;;11.07;;
30647;SDS011;17683;53.360;9.736;2024-02-26T08:03:40;15.07;;;10.70;;
30647;SDS011;17683;53.360;9.736;2024-02-26T08:06:05;15.00;;;10.55;;
30647;SDS011;17683;53.360;9.736;2024-02-26T08:08:33;15.48;;;9.63;;
30647;SDS011;17683;53.360;9.736;2024-02-26T08:10:59;15.00;;;10.63;;
30647;SDS011;17683;53.360;9.736;2024-02-26T08:13:25;15.85;;;10.27;;
30647;SDS011;17683;53.360;9.736;2024-02-26T08:15:51;13.95;;;10.35;;
30647;SDS011;17683;53.360;9.736;2024-02-26T08:18:17;17.42;;;11.45;;
30647;SDS011;17683;53.360;9.736;2024-02-26T08:20:44;16.45;;;10.88;;
30647;SDS011;17683;53.360;9.736;2024-02-26T08:23:10;21.05;;;11.18;;
30647;SDS011;17683;53.360;9.736;2024-02-26T08:25:37;19.20;;;11.65;;
30647;SDS011;17683;53.360;9.736;2024-02-26T08:28:02;18.30;;;11.77;;
30647;SDS011;17683;53.360;9.736;2024-02-26T08:30:28;18.67;;;11.77;;
30647;SDS011;17683;53.360;9.736;2024-02-26T08:32:54;21.20;;;12.05;;
30647;SDS011;17683;53.360;9.736;2024-02-26T08:35:20;17.23;;;11.40;;
30647;SDS011;17683;53.360;9.736;2024-02-26T08:37:46;17.10;;;11.93;;
30647;SDS011;17683;53.360;9.736;2024-02-26T08:40:13;20.95;;;13.18;;
30647;SDS011;17683;53.360;9.736;2024-02-26T08:42:39;23.65;;;14.55;;
30647;SDS011;17683;53.360;9.736;2024-02-26T08:45:05;21.85;;;12.45;;
30647;SDS011;17683;53.360;9.736;2024-02-26T08:47:32;18.60;;;11.55;;
30647;SDS011;17683;53.360;9.736;2024-02-26T08:49:58;19.42;;;13.48;;
30647;SDS011;17683;53.360;9.736;2024-02-26T08:52:24;22.95;;;13.32;;
30647;SDS011;17683;53.360;9.736;2024-02-26T08:54:50;24.48;;;13.65;;
30647;SDS011;17683;53.360;9.736;2024-02-26T08:57:15;20.15;;;13.93;;
30647;SDS011;17683;53.360;9.736;2024-02-26T08:59:41;21.55;;;14.23;;
30647;SDS011;17683;53.360;9.736;2024-02-26T09:02:07;22.13;;;13.65;;
30647;SDS011;17683;53.360;9.736;2024-02-26T09:04:34;22.38;;;15.13;;
30647;SDS011;17683;53.360;9.736;2024-02-26T09:07:01;24.40;;;15.02;;
30647;SDS011;17683;53.360;9.736;2024-02-26T09:09:27;21.75;;;13.50;;
30647;SDS011;17683;53.360;9.736;2024-02-26T09:11:53;22.23;;;13.75;;
30647;SDS011;17683;53.360;9.736;2024-02-26T09:14:20;22.98;;;15.57;;
30647;SDS011;17683;53.360;9.736;2024-02-26T09:16:46;22.88;;;14.85;;
30647;SDS011;17683;53.360;9.736;2024-02-26T09:19:13;23.00;;;15.27;;
30647;SDS011;17683;53.360;9.736;2024-02-26T09:21:43;22.33;;;15.15;;
30647;SDS011;17683;53.360;9.736;2024-02-26T09:24:10;21.90;;;14.95;;
30647;SDS011;17683;53.360;9.736;2024-02-26T09:26:39;21.85;;;15.77;;
30647;SDS011;17683;53.360;9.736;2024-02-26T09:29:05;25.67;;;15.30;;
30647;SDS011;17683;53.360;9.736;2024-02-26T09:31:32;19.40;;;13.40;;
30647;SDS011;17683;53.360;9.736;2024-02-26T09:33:59;25.25;;;15.82;;
30647;SDS011;17683;53.360;9.736;2024-02-26T09:36:25;23.08;;;15.98;;
30647;SDS011;17683;53.360;9.736;2024-02-26T09:38:51;22.48;;;15.38;;
30647;SDS011;17683;53.360;9.736;2024-02-26T09:41:16;23.92;;;15.82;;
30647;SDS011;17683;53.360;9.736;2024-02-26T09:43:44;21.50;;;15.50;;
30647;SDS011;17683;53.360;9.736;2024-02-26T09:46:14;24.27;;;16.60;;
30647;SDS011;17683;53.360;9.736;2024-02-26T09:48:42;24.95;;;17.98;;
30647;SDS011;17683;53.360;9.736;2024-02-26T09:51:10;24.23;;;16.48;;
30647;SDS011;17683;53.360;9.736;2024-02-26T09:53:37;23.17;;;16.42;;
30647;SDS011;17683;53.360;9.736;2024-02-26T09:56:07;22.35;;;15.38;;
30647;SDS011;17683;53.360;9.736;2024-02-26T09:58:33;22.58;;;16.85;;
30647;SDS011;17683;53.360;9.736;2024-02-26T10:01:02;22.77;;;15.40;;
30647;SDS011;17683;53.360;9.736;2024-02-26T10:03:31;24.55;;;16.38;;
30647;SDS011;17683;53.360;9.736;2024-02-26T10:06:04;22.40;;;16.52;;
30647;SDS011;17683;53.360;9.736;2024-02-26T10:08:31;23.58;;;16.35;;
30647;SDS011;17683;53.360;9.736;2024-02-26T10:10:57;23.05;;;15.27;;
30647;SDS011;17683;53.360;9.736;2024-02-26T10:13:24;26.38;;;16.17;;
30647;SDS011;17683;53.360;9.736;2024-02-26T10:15:50;21.80;;;16.67;;
30647;SDS011;17683;53.360;9.736;2024-02-26T10:18:16;25.67;;;16.42;;
30647;SDS011;17683;53.360;9.736;2024-02-26T10:20:42;21.70;;;15.35;;
30647;SDS011;17683;53.360;9.736;2024-02-26T10:23:25;19.33;;;14.55;;
30647;SDS011;17683;53.360;9.736;2024-02-26T10:25:54;20.65;;;13.88;;
30647;SDS011;17683;53.360;9.736;2024-02-26T10:28:21;17.02;;;12.70;;
30647;SDS011;17683;53.360;9.736;2024-02-26T10:30:47;17.90;;;13.38;;
30647;SDS011;17683;53.360;9.736;2024-02-26T10:33:14;18.02;;;13.82;;
30647;SDS011;17683;53.360;9.736;2024-02-26T10:35:44;16.92;;;12.63;;
30647;SDS011;17683;53.360;9.736;2024-02-26T10:38:11;16.23;;;12.88;;
30647;SDS011;17683;53.360;9.736;2024-02-26T10:40:37;20.35;;;11.23;;
30647;SDS011;17683;53.360;9.736;2024-02-26T10:43:03;12.75;;;10.93;;
30647;SDS011;17683;53.360;9.736;2024-02-26T10:45:29;13.60;;;10.65;;
30647;SDS011;17683;53.360;9.736;2024-02-26T10:47:57;13.82;;;10.23;;
30647;SDS011;17683;53.360;9.736;2024-02-26T10:50:23;14.43;;;9.77;;
30647;SDS011;17683;53.360;9.736;2024-02-26T10:52:49;13.88;;;9.90;;
30647;SDS011;17683;53.360;9.736;2024-02-26T10:55:17;11.73;;;9.50;;
30647;SDS011;17683;53.360;9.736;2024-02-26T10:57:44;11.30;;;9.30;;
30647;SDS011;17683;53.360;9.736;2024-02-26T11:00:10;12.48;;;9.80;;
30647;SDS011;17683;53.360;9.736;2024-02-26T11:02:40;20.23;;;10.88;;
30647;SDS011;17683;53.360;9.736;2024-02-26T11:05:07;15.15;;;9.30;;
30647;SDS011;17683;53.360;9.736;2024-02-26T11:07:36;12.43;;;8.63;;
30647;SDS011;17683;53.360;9.736;2024-02-26T11:10:03;12.70;;;9.02;;
30647;SDS011;17683;53.360;9.736;2024-02-26T11:12:31;12.27;;;8.98;;
30647;SDS011;17683;53.360;9.736;2024-02-26T11:15:00;12.70;;;8.88;;
30647;SDS011;17683;53.360;9.736;2024-02-26T11:17:27;9.40;;;8.13;;
30647;SDS011;17683;53.360;9.736;2024-02-26T11:19:57;14.85;;;9.75;;
30647;SDS011;17683;53.360;9.736;2024-02-26T11:22:24;11.48;;;9.60;;
30647;SDS011;17683;53.360;9.736;2024-02-26T11:24:54;11.55;;;10.07;;
30647;SDS011;17683;53.360;9.736;2024-02-26T11:27:48;11.95;;;9.98;;
30647;SDS011;17683;53.360;9.736;2024-02-26T11:30:14;12.80;;;10.10;;
30647;SDS011;17683;53.360;9.736;2024-02-26T11:32:43;15.23;;;10.80;;
30647;SDS011;17683;53.360;9.736;2024-02-26T11:35:12;15.05;;;10.98;;
30647;SDS011;17683;53.360;9.736;2024-02-26T11:37:40;12.82;;;10.60;;
30647;SDS011;17683;53.360;9.736;2024-02-26T11:40:10;15.63;;;11.18;;
30647;SDS011;17683;53.360;9.736;2024-02-26T11:42:43;14.43;;;11.05;;
30647;SDS011;17683;53.360;9.736;2024-02-26T11:48:03;12.25;;;9.80;;
30647;SDS011;17683;53.360;9.736;2024-02-26T11:50:35;15.57;;;10.52;;
30647;SDS011;17683;53.360;9.736;2024-02-26T11:56:11;14.88;;;10.18;;
30647;SDS011;17683;53.360;9.736;2024-02-26T11:58:39;14.52;;;10.73;;
30647;SDS011;17683;53.360;9.736;2024-02-26T12:01:05;12.43;;;10.23;;
30647;SDS011;17683;53.360;9.736;2024-02-26T12:03:51;11.43;;;9.75;;
30647;SDS011;17683;53.360;9.736;2024-02-26T12:06:20;12.93;;;9.57;;
30647;SDS011;17683;53.360;9.736;2024-02-26T12:08:46;12.68;;;10.50;;
30647;SDS011;17683;53.360;9.736;2024-02-26T12:11:15;13.85;;;9.98;;
30647;SDS011;17683;53.360;9.736;2024-02-26T12:13:41;15.65;;;10.77;;
30647;SDS011;17683;53.360;9.736;2024-02-26T12:16:07;13.65;;;10.52;;
30647;SDS011;17683;53.360;9.736;2024-02-26T12:18:34;14.50;;;10.43;;
30647;SDS011;17683;53.360;9.736;2024-02-26T12:21:00;12.68;;;9.13;;
30647;SDS011;17683;53.360;9.736;2024-02-26T12:23:27;11.88;;;8.80;;
30647;SDS011;17683;53.360;9.736;2024-02-26T12:25:53;15.73;;;10.30;;
30647;SDS011;17683;53.360;9.736;2024-02-26T12:28:27;16.90;;;10.80;;
30647;SDS011;17683;53.360;9.736;2024-02-26T12:30:55;13.90;;;9.27;;
30647;SDS011;17683;53.360;9.736;2024-02-26T12:33:24;18.50;;;11.52;;
30647;SDS011;17683;53.360;9.736;2024-02-26T12:35:51;20.25;;;11.27;;
30647;SDS011;17683;53.360;9.736;2024-02-26T12:38:18;17.20;;;11.27;;
30647;SDS011;17683;53.360;9.736;2024-02-26T12:40:44;17.52;;;11.45;;
30647;SDS011;17683;53.360;9.736;2024-02-26T12:43:10;14.88;;;10.70;;
30647;SDS011;17683;53.360;9.736;2024-02-26T12:45:41;14.07;;;10.45;;
30647;SDS011;17683;53.360;9.736;2024-02-26T12:48:10;17.00;;;10.55;;
30647;SDS011;17683;53.360;9.736;2024-02-26T12:50:39;17.00;;;10.73;;
30647;SDS011;17683;53.360;9.736;2024-02-26T12:53:05;16.33;;;11.07;;
30647;SDS011;17683;53.360;9.736;2024-02-26T12:55:31;14.60;;;10.82;;
30647;SDS011;17683;53.360;9.736;2024-02-26T12:57:59;17.08;;;12.23;;
30647;SDS011;17683;53.360;9.736;2024-02-26T13:00:26;15.65;;;11.13;;
30647;SDS011;17683;53.360;9.736;2024-02-26T13:02:53;15.40;;;10.63;;
30647;SDS011;17683;53.360;9.736;2024-02-26T13:05:20;16.45;;;11.27;;
30647;SDS011;17683;53.360;9.736;2024-02-26T13:07:47;17.08;;;11.55;;
30647;SDS011;17683;53.360;9.736;2024-02-26T13:10:13;14.73;;;10.57;;
30647;SDS011;17683;53.360;9.736;2024-02-26T13:12:43;16.25;;;11.07;;
30647;SDS011;17683;53.360;9.736;2024-02-26T13:15:13;18.00;;;11.75;;
30647;SDS011;17683;53.360;9.736;2024-02-26T13:17:40;19.00;;;11.45;;
30647;SDS011;17683;53.360;9.736;2024-02-26T13:20:07;13.70;;;10.07;;
30647;SDS011;17683;53.360;9.736;2024-02-26T13:22:35;19.75;;;13.00;;
30647;SDS011;17683;53.360;9.736;2024-02-26T13:25:04;18.85;;;12.13;;
30647;SDS011;17683;53.360;9.736;2024-02-26T13:27:32;19.75;;;10.80;;
30647;SDS011;17683;53.360;9.736;2024-02-26T13:30:11;15.63;;;11.23;;
30647;SDS011;17683;53.360;9.736;2024-02-26T13:32:38;21.20;;;11.43;;
30647;SDS011;17683;53.360;9.736;2024-02-26T13:35:08;18.60;;;12.00;;
30647;SDS011;17683;53.360;9.736;2024-02-26T13:37:36;18.50;;;13.13;;
30647;SDS011;17683;53.360;9.736;2024-02-26T13:40:08;23.13;;;13.90;;
30647;SDS011;17683;53.360;9.736;2024-02-26T13:42:37;28.73;;;13.52;;
30647;SDS011;17683;53.360;9.736;2024-02-26T13:45:04;21.27;;;13.02;;
30647;SDS011;17683;53.360;9.736;2024-02-26T13:47:34;17.58;;;12.25;;
30647;SDS011;17683;53.360;9.736;2024-02-26T13:50:00;16.58;;;12.48;;
30647;SDS011;17683;53.360;9.736;2024-02-26T13:52:27;20.08;;;10.40;;
30647;SDS011;17683;53.360;9.736;2024-02-26T13:54:53;13.63;;;10.50;;
30647;SDS011;17683;53.360;9.736;2024-02-26T13:57:19;15.60;;;11.05;;
30647;SDS011;17683;53.360;9.736;2024-02-26T13:59:45;13.63;;;9.10;;
30647;SDS011;17683;53.360;9.736;2024-02-26T14:02:11;13.60;;;10.30;;
30647;SDS011;17683;53.360;9.736;2024-02-26T14:04:37;15.02;;;10.02;;
30647;SDS011;17683;53.360;9.736;2024-02-26T14:07:03;13.27;;;8.95;;
30647;SDS011;17683;53.360;9.736;2024-02-26T14:09:29;12.93;;;9.43;;
30647;SDS011;17683;53.360;9.736;2024-02-26T14:11:57;18.00;;;11.05;;
30647;SDS011;17683;53.360;9.736;2024-02-26T14:14:23;16.40;;;11.68;;
30647;SDS011;17683;53.360;9.736;2024-02-26T14:16:50;22.13;;;13.40;;
30647;SDS011;17683;53.360;9.736;2024-02-26T14:19:16;22.35;;;13.80;;
30647;SDS011;17683;53.360;9.736;2024-02-26T14:21:42;21.92;;;14.77;;
30647;SDS011;17683;53.360;9.736;2024-02-26T14:24:08;19.25;;;13.85;;
30647;SDS011;17683;53.360;9.736;2024-02-26T14:26:34;21.25;;;15.57;;
30647;SDS011;17683;53.360;9.736;2024-02-26T14:29:00;22.33;;;15.73;;
30647;SDS011;17683;53.360;9.736;2024-02-26T14:31:25;22.48;;;15.40;;
30647;SDS011;17683;53.360;9.736;2024-02-26T14:33:51;21.83;;;13.63;;
30647;SDS011;17683;53.360;9.736;2024-02-26T14:36:19;21.60;;;14.45;;
30647;SDS011;17683;53.360;9.736;2024-02-26T14:38:46;18.08;;;13.57;;